createdAt,value
2023-03-23T15:59:01.249Z,76.63
2023-03-23T16:03:07.077Z,76.16
2023-03-23T16:07:13.870Z,76.10
2023-03-23T16:11:19.707Z,76.37
2023-03-23T16:15:22.867Z,76.88
2023-03-23T16:19:25.724Z,77.15
2023-03-23T16:23:28.515Z,77.17
2023-03-23T16:27:32.862Z,78.62
2023-03-23T16:31:35.755Z,77.07
2023-03-23T16:35:38.789Z,77.27
2023-03-23T16:39:41.491Z,77.84
2023-03-23T16:43:45.918Z,77.52
2023-03-23T16:47:48.702Z,78.41
2023-03-23T16:51:52.369Z,78.20
2023-03-23T16:55:55.300Z,77.57
2023-03-23T17:00:02.290Z,78.44
2023-03-23T17:04:05.456Z,79.77
2023-03-23T17:08:08.362Z,78.42
2023-03-23T17:12:11.547Z,79.69
2023-03-23T17:16:15.975Z,79.64
2023-03-23T17:20:18.964Z,80.32
2023-03-23T17:24:21.668Z,80.17
2023-03-23T17:28:24.661Z,80.87
2023-03-23T17:32:29.193Z,80.99
2023-03-23T17:36:31.978Z,81.40
2023-03-23T17:40:34.992Z,82.29
2023-03-23T17:44:37.788Z,82.37
2023-03-23T17:48:42.057Z,83.15
2023-03-23T17:52:45.094Z,82.50
2023-03-23T17:56:47.913Z,83.16
2023-03-23T18:00:50.854Z,83.26
2023-03-23T18:04:58.234Z,84.83
2023-03-23T18:09:01.302Z,85.01
2023-03-23T18:13:04.724Z,86.12
2023-03-23T18:17:07.638Z,87.29
2023-03-23T18:21:12.289Z,87.11
2023-03-23T18:25:15.409Z,86.23
2023-03-23T18:29:18.507Z,86.32
2023-03-23T18:33:22.754Z,85.01
2023-03-23T18:37:27.080Z,85.71
2023-03-23T18:41:29.967Z,85.79
2023-03-23T18:45:34.046Z,85.09
2023-03-23T18:49:36.769Z,85.71
2023-03-23T18:53:41.476Z,86.31
2023-03-23T18:57:44.582Z,86.54
2023-03-23T19:01:50.015Z,86.60
2023-03-23T19:05:53.202Z,86.31
2023-03-23T19:09:57.492Z,86.74
2023-03-23T19:14:03.099Z,86.97
2023-03-23T19:18:07.055Z,88.02
2023-03-23T19:22:10.027Z,87.67
2023-03-23T19:26:21.505Z,86.96
2023-03-23T19:30:24.199Z,88.37
2023-03-23T19:34:28.184Z,90.04
2023-03-23T19:38:30.938Z,90.10
2023-03-23T19:42:35.533Z,91.33
2023-03-23T19:46:38.545Z,90.49
2023-03-23T19:50:41.694Z,90.53
2023-03-23T19:54:45.352Z,90.83
2023-03-23T19:58:51.087Z,89.84
2023-03-23T20:02:54.202Z,90.89
2023-03-23T20:06:59.309Z,91.76
2023-03-23T20:11:06.342Z,90.80
2023-03-23T20:15:11.832Z,91.11
2023-03-23T20:19:14.607Z,90.28
2023-03-23T20:23:17.477Z,90.13
2023-03-23T20:27:20.508Z,91.49
2023-03-23T20:31:26.834Z,90.95
2023-03-23T20:35:30.490Z,90.96
2023-03-23T20:39:34.445Z,90.92
2023-03-23T20:43:37.259Z,92.30
2023-03-23T20:47:42.350Z,90.99
2023-03-23T20:51:46.580Z,90.99
2023-03-23T20:55:49.553Z,92.83
2023-03-23T20:59:53.350Z,92.42
2023-03-23T21:03:58.036Z,92.65
2023-03-23T21:08:02.041Z,92.90
2023-03-23T21:12:06.218Z,94.01
2023-03-23T21:16:09.047Z,91.85
2023-03-23T21:20:13.527Z,94.45
2023-03-23T21:24:16.528Z,94.43
2023-03-23T21:28:19.607Z,93.65
2023-03-23T21:32:22.335Z,93.83
2023-03-23T21:36:27.425Z,92.85
2023-03-23T21:40:30.548Z,94.62
2023-03-23T21:44:34.816Z,94.13
2023-03-23T21:48:38.624Z,96.93
2023-03-23T21:52:43.375Z,94.81
2023-03-23T21:56:46.133Z,96.41
2023-03-23T22:00:50.150Z,97.68
2023-03-23T22:04:55.961Z,96.25
2023-03-23T22:09:00.356Z,95.63
2023-03-23T22:13:02.996Z,94.63
2023-03-23T22:17:05.794Z,93.07
2023-03-23T22:21:08.832Z,95.45
2023-03-23T22:25:13.708Z,95.21
2023-03-23T22:29:17.164Z,96.38
2023-03-23T22:33:19.977Z,95.18
2023-03-23T22:37:22.674Z,95.32
2023-03-23T22:41:29.256Z,95.95
2023-03-23T22:45:32.743Z,97.56
2023-03-23T22:49:35.997Z,96.86
2023-03-23T22:53:38.791Z,97.05
2023-03-23T22:57:42.894Z,99.13
2023-03-23T23:01:45.619Z,97.25
2023-03-23T23:05:51.216Z,98.02
2023-03-23T23:09:53.909Z,98.27
2023-03-23T23:13:58.103Z,98.39
2023-03-23T23:18:01.072Z,98.11
2023-03-23T23:22:17.908Z,97.70
2023-03-23T23:26:22.428Z,97.50
2023-03-23T23:30:26.682Z,96.60
2023-03-23T23:34:29.647Z,95.71
2023-03-23T23:38:32.330Z,97.63
2023-03-23T23:42:35.012Z,96.88
2023-03-23T23:46:39.599Z,96.06
2023-03-23T23:50:42.401Z,95.89
2023-03-23T23:54:47.470Z,96.34
2023-03-23T23:58:50.204Z,96.36
